sensor_id;sensor_type;location;lat;lon;timestamp;P1;durP1;ratioP1;P2;durP2;ratioP2
9052;SDS011;4561;47.450;7.516;2022-08-19T00:00:58;3.70;;;3.40;;
9052;SDS011;4561;47.450;7.516;2022-08-19T00:04:22;2.90;;;2.70;;
9052;SDS011;4561;47.450;7.516;2022-08-19T00:07:44;3.60;;;3.30;;
9052;SDS011;4561;47.450;7.516;2022-08-19T00:11:05;4.37;;;4.07;;
9052;SDS011;4561;47.450;7.516;2022-08-19T00:14:27;4.73;;;4.30;;
9052;SDS011;4561;47.450;7.516;2022-08-19T00:17:51;4.20;;;3.80;;
9052;SDS011;4561;47.450;7.516;2022-08-19T00:21:11;4.33;;;3.60;;
9052;SDS011;4561;47.450;7.516;2022-08-19T00:24:34;3.63;;;3.23;;
9052;SDS011;4561;47.450;7.516;2022-08-19T00:27:55;4.20;;;3.80;;
9052;SDS011;4561;47.450;7.516;2022-08-19T00:31:18;4.83;;;4.37;;
9052;SDS011;4561;47.450;7.516;2022-08-19T00:34:38;4.50;;;4.10;;
9052;SDS011;4561;47.450;7.516;2022-08-19T00:38:01;4.87;;;4.33;;
9052;SDS011;4561;47.450;7.516;2022-08-19T00:41:23;4.80;;;4.20;;
9052;SDS011;4561;47.450;7.516;2022-08-19T00:44:44;5.93;;;3.50;;
9052;SDS011;4561;47.450;7.516;2022-08-19T00:48:04;5.93;;;4.03;;
9052;SDS011;4561;47.450;7.516;2022-08-19T00:51:27;8.87;;;4.40;;
9052;SDS011;4561;47.450;7.516;2022-08-19T00:54:52;6.70;;;4.73;;
9052;SDS011;4561;47.450;7.516;2022-08-19T00:58:13;4.93;;;4.53;;
9052;SDS011;4561;47.450;7.516;2022-08-19T01:01:39;4.70;;;4.30;;
9052;SDS011;4561;47.450;7.516;2022-08-19T01:05:02;4.20;;;3.90;;
9052;SDS011;4561;47.450;7.516;2022-08-19T01:08:24;3.40;;;3.10;;
9052;SDS011;4561;47.450;7.516;2022-08-19T01:11:45;3.80;;;3.50;;
9052;SDS011;4561;47.450;7.516;2022-08-19T01:15:07;4.60;;;3.90;;
9052;SDS011;4561;47.450;7.516;2022-08-19T01:18:33;3.20;;;3.00;;
9052;SDS011;4561;47.450;7.516;2022-08-19T01:21:59;258.53;;;10.47;;
9052;SDS011;4561;47.450;7.516;2022-08-19T01:25:40;8.53;;;4.10;;
9052;SDS011;4561;47.450;7.516;2022-08-19T01:29:06;5.10;;;4.47;;
9052;SDS011;4561;47.450;7.516;2022-08-19T01:32:27;4.97;;;4.37;;
9052;SDS011;4561;47.450;7.516;2022-08-19T01:35:49;4.97;;;4.47;;
9052;SDS011;4561;47.450;7.516;2022-08-19T01:39:12;345.60;;;11.20;;
9052;SDS011;4561;47.450;7.516;2022-08-19T01:42:36;248.37;;;9.67;;
9052;SDS011;4561;47.450;7.516;2022-08-19T01:45:56;283.60;;;11.13;;
9052;SDS011;4561;47.450;7.516;2022-08-19T01:49:18;62.67;;;5.77;;
9052;SDS011;4561;47.450;7.516;2022-08-19T01:52:41;97.63;;;7.03;;
9052;SDS011;4561;47.450;7.516;2022-08-19T01:56:02;8.83;;;4.23;;
9052;SDS011;4561;47.450;7.516;2022-08-19T01:59:24;44.13;;;6.00;;
9052;SDS011;4561;47.450;7.516;2022-08-19T02:02:44;74.73;;;7.37;;
9052;SDS011;4561;47.450;7.516;2022-08-19T02:06:05;28.50;;;5.50;;
9052;SDS011;4561;47.450;7.516;2022-08-19T02:09:26;5.10;;;4.67;;
9052;SDS011;4561;47.450;7.516;2022-08-19T02:12:49;7.00;;;5.40;;
9052;SDS011;4561;47.450;7.516;2022-08-19T02:16:12;7.43;;;5.70;;
9052;SDS011;4561;47.450;7.516;2022-08-19T02:19:32;5.37;;;4.97;;
9052;SDS011;4561;47.450;7.516;2022-08-19T02:22:53;8.60;;;7.07;;
9052;SDS011;4561;47.450;7.516;2022-08-19T02:26:18;7.67;;;7.07;;
9052;SDS011;4561;47.450;7.516;2022-08-19T02:29:39;6.10;;;5.60;;
9052;SDS011;4561;47.450;7.516;2022-08-19T02:33:02;5.80;;;5.30;;
9052;SDS011;4561;47.450;7.516;2022-08-19T02:36:23;9.50;;;5.73;;
9052;SDS011;4561;47.450;7.516;2022-08-19T02:39:44;45.80;;;6.30;;
9052;SDS011;4561;47.450;7.516;2022-08-19T02:43:07;442.73;;;19.27;;
9052;SDS011;4561;47.450;7.516;2022-08-19T02:46:29;352.77;;;16.80;;
9052;SDS011;4561;47.450;7.516;2022-08-19T02:49:53;538.50;;;21.40;;
9052;SDS011;4561;47.450;7.516;2022-08-19T02:53:15;23.47;;;6.57;;
9052;SDS011;4561;47.450;7.516;2022-08-19T02:56:36;20.90;;;5.77;;
9052;SDS011;4561;47.450;7.516;2022-08-19T02:59:57;10.33;;;6.43;;
9052;SDS011;4561;47.450;7.516;2022-08-19T03:03:18;30.70;;;7.00;;
9052;SDS011;4561;47.450;7.516;2022-08-19T03:06:39;6.17;;;5.53;;
9052;SDS011;4561;47.450;7.516;2022-08-19T03:10:01;6.90;;;6.30;;
9052;SDS011;4561;47.450;7.516;2022-08-19T03:13:22;11.73;;;5.93;;
9052;SDS011;4561;47.450;7.516;2022-08-19T03:16:44;6.27;;;5.67;;
9052;SDS011;4561;47.450;7.516;2022-08-19T03:20:06;6.63;;;5.30;;
9052;SDS011;4561;47.450;7.516;2022-08-19T03:23:27;30.60;;;8.37;;
9052;SDS011;4561;47.450;7.516;2022-08-19T03:26:49;7.43;;;6.10;;
9052;SDS011;4561;47.450;7.516;2022-08-19T03:30:12;7.10;;;6.30;;
9052;SDS011;4561;47.450;7.516;2022-08-19T03:33:33;7.80;;;6.87;;
9052;SDS011;4561;47.450;7.516;2022-08-19T03:36:55;7.63;;;6.93;;
9052;SDS011;4561;47.450;7.516;2022-08-19T03:40:17;6.90;;;6.23;;
9052;SDS011;4561;47.450;7.516;2022-08-19T03:43:40;6.13;;;5.53;;
9052;SDS011;4561;47.450;7.516;2022-08-19T03:47:00;5.00;;;4.70;;
9052;SDS011;4561;47.450;7.516;2022-08-19T03:50:21;5.97;;;5.43;;
9052;SDS011;4561;47.450;7.516;2022-08-19T03:53:41;6.73;;;6.13;;
9052;SDS011;4561;47.450;7.516;2022-08-19T03:57:02;5.57;;;5.17;;
9052;SDS011;4561;47.450;7.516;2022-08-19T04:00:22;6.00;;;5.40;;
9052;SDS011;4561;47.450;7.516;2022-08-19T04:03:43;5.47;;;5.07;;
9052;SDS011;4561;47.450;7.516;2022-08-19T04:07:09;101.80;;;8.73;;
9052;SDS011;4561;47.450;7.516;2022-08-19T04:10:29;17.50;;;5.50;;
9052;SDS011;4561;47.450;7.516;2022-08-19T04:13:53;5.37;;;4.93;;
9052;SDS011;4561;47.450;7.516;2022-08-19T04:17:16;6.80;;;6.20;;
9052;SDS011;4561;47.450;7.516;2022-08-19T04:20:40;6.53;;;6.03;;
9052;SDS011;4561;47.450;7.516;2022-08-19T04:24:05;6.20;;;5.70;;
9052;SDS011;4561;47.450;7.516;2022-08-19T04:27:31;7.37;;;6.73;;
9052;SDS011;4561;47.450;7.516;2022-08-19T04:30:55;7.20;;;6.60;;
9052;SDS011;4561;47.450;7.516;2022-08-19T04:34:16;6.00;;;5.50;;
9052;SDS011;4561;47.450;7.516;2022-08-19T04:37:42;5.67;;;5.17;;
9052;SDS011;4561;47.450;7.516;2022-08-19T04:41:04;4.73;;;4.33;;
9052;SDS011;4561;47.450;7.516;2022-08-19T04:44:43;5.03;;;4.63;;
9052;SDS011;4561;47.450;7.516;2022-08-19T04:48:04;6.47;;;5.97;;
9052;SDS011;4561;47.450;7.516;2022-08-19T04:51:24;8.63;;;5.90;;
9052;SDS011;4561;47.450;7.516;2022-08-19T04:54:45;8.03;;;7.17;;
9052;SDS011;4561;47.450;7.516;2022-08-19T04:58:05;155.50;;;12.60;;
9052;SDS011;4561;47.450;7.516;2022-08-19T05:01:27;18.73;;;7.73;;
9052;SDS011;4561;47.450;7.516;2022-08-19T05:04:58;8.20;;;7.40;;
9052;SDS011;4561;47.450;7.516;2022-08-19T05:08:20;8.00;;;7.40;;
9052;SDS011;4561;47.450;7.516;2022-08-19T05:11:41;20.90;;;7.30;;
9052;SDS011;4561;47.450;7.516;2022-08-19T05:15:03;6.73;;;6.13;;
9052;SDS011;4561;47.450;7.516;2022-08-19T05:18:25;113.83;;;10.50;;
9052;SDS011;4561;47.450;7.516;2022-08-19T05:22:05;104.43;;;10.53;;
9052;SDS011;4561;47.450;7.516;2022-08-19T05:25:44;14.17;;;8.20;;
9052;SDS011;4561;47.450;7.516;2022-08-19T05:29:04;8.20;;;7.53;;
9052;SDS011;4561;47.450;7.516;2022-08-19T05:32:25;17.60;;;7.10;;
9052;SDS011;4561;47.450;7.516;2022-08-19T05:35:46;6.33;;;5.83;;
9052;SDS011;4561;47.450;7.516;2022-08-19T05:39:09;5.80;;;5.40;;
9052;SDS011;4561;47.450;7.516;2022-08-19T05:42:30;7.17;;;6.57;;
9052;SDS011;4561;47.450;7.516;2022-08-19T05:45:53;7.57;;;6.87;;
9052;SDS011;4561;47.450;7.516;2022-08-19T05:49:14;6.60;;;6.00;;
9052;SDS011;4561;47.450;7.516;2022-08-19T05:52:36;6.53;;;6.03;;
9052;SDS011;4561;47.450;7.516;2022-08-19T05:55:58;6.17;;;5.57;;
9052;SDS011;4561;47.450;7.516;2022-08-19T05:59:19;6.37;;;5.77;;
9052;SDS011;4561;47.450;7.516;2022-08-19T06:02:41;38.00;;;7.40;;
9052;SDS011;4561;47.450;7.516;2022-08-19T06:06:01;8.53;;;7.67;;
9052;SDS011;4561;47.450;7.516;2022-08-19T06:09:24;7.60;;;6.90;;
9052;SDS011;4561;47.450;7.516;2022-08-19T06:12:45;7.87;;;7.17;;
9052;SDS011;4561;47.450;7.516;2022-08-19T06:16:05;7.83;;;7.23;;
9052;SDS011;4561;47.450;7.516;2022-08-19T06:19:29;7.77;;;7.10;;
9052;SDS011;4561;47.450;7.516;2022-08-19T06:22:50;8.90;;;8.03;;
9052;SDS011;4561;47.450;7.516;2022-08-19T06:26:14;9.97;;;9.17;;
9052;SDS011;4561;47.450;7.516;2022-08-19T06:29:36;9.73;;;8.73;;
9052;SDS011;4561;47.450;7.516;2022-08-19T06:32:56;10.87;;;9.97;;
9052;SDS011;4561;47.450;7.516;2022-08-19T06:39:47;10.73;;;9.80;;
9052;SDS011;4561;47.450;7.516;2022-08-19T06:43:08;10.40;;;9.60;;
9052;SDS011;4561;47.450;7.516;2022-08-19T06:46:28;11.33;;;10.43;;
9052;SDS011;4561;47.450;7.516;2022-08-19T06:49:53;11.63;;;10.73;;
9052;SDS011;4561;47.450;7.516;2022-08-19T06:53:19;11.37;;;10.47;;
9052;SDS011;4561;47.450;7.516;2022-08-19T06:56:39;10.93;;;10.03;;
9052;SDS011;4561;47.450;7.516;2022-08-19T07:00:00;11.27;;;10.33;;
9052;SDS011;4561;47.450;7.516;2022-08-19T07:03:23;10.63;;;9.60;;
9052;SDS011;4561;47.450;7.516;2022-08-19T07:06:43;10.57;;;9.57;;
9052;SDS011;4561;47.450;7.516;2022-08-19T07:10:04;10.57;;;9.67;;
9052;SDS011;4561;47.450;7.516;2022-08-19T07:13:30;10.90;;;10.00;;
9052;SDS011;4561;47.450;7.516;2022-08-19T07:16:57;11.00;;;10.13;;
9052;SDS011;4561;47.450;7.516;2022-08-19T07:20:18;10.70;;;9.60;;
9052;SDS011;4561;47.450;7.516;2022-08-19T07:23:46;10.23;;;9.43;;
9052;SDS011;4561;47.450;7.516;2022-08-19T07:27:09;10.30;;;9.40;;
9052;SDS011;4561;47.450;7.516;2022-08-19T07:30:30;10.97;;;10.07;;
9052;SDS011;4561;47.450;7.516;2022-08-19T07:33:51;10.47;;;9.50;;
9052;SDS011;4561;47.450;7.516;2022-08-19T07:37:12;12.03;;;10.93;;
9052;SDS011;4561;47.450;7.516;2022-08-19T07:40:32;14.13;;;13.00;;
9052;SDS011;4561;47.450;7.516;2022-08-19T07:43:53;12.70;;;11.50;;
9052;SDS011;4561;47.450;7.516;2022-08-19T07:47:14;14.40;;;13.17;;
9052;SDS011;4561;47.450;7.516;2022-08-19T07:50:35;12.93;;;11.93;;
9052;SDS011;4561;47.450;7.516;2022-08-19T07:53:57;13.10;;;12.00;;
9052;SDS011;4561;47.450;7.516;2022-08-19T07:57:17;12.57;;;11.47;;
9052;SDS011;4561;47.450;7.516;2022-08-19T08:00:39;15.23;;;13.77;;
9052;SDS011;4561;47.450;7.516;2022-08-19T08:03:59;15.43;;;14.03;;
9052;SDS011;4561;47.450;7.516;2022-08-19T08:07:39;14.30;;;13.10;;
9052;SDS011;4561;47.450;7.516;2022-08-19T08:11:19;14.40;;;13.17;;
9052;SDS011;4561;47.450;7.516;2022-08-19T08:14:41;15.03;;;13.63;;
9052;SDS011;4561;47.450;7.516;2022-08-19T08:18:04;15.47;;;14.17;;
9052;SDS011;4561;47.450;7.516;2022-08-19T08:21:27;17.73;;;16.13;;
9052;SDS011;4561;47.450;7.516;2022-08-19T08:24:47;15.70;;;14.33;;
9052;SDS011;4561;47.450;7.516;2022-08-19T08:28:10;15.90;;;14.50;;
9052;SDS011;4561;47.450;7.516;2022-08-19T08:31:31;16.13;;;14.83;;
9052;SDS011;4561;47.450;7.516;2022-08-19T08:34:53;16.30;;;15.00;;
9052;SDS011;4561;47.450;7.516;2022-08-19T08:38:14;17.67;;;16.10;;
9052;SDS011;4561;47.450;7.516;2022-08-19T08:41:37;16.40;;;15.00;;
9052;SDS011;4561;47.450;7.516;2022-08-19T08:45:13;17.30;;;15.83;;
9052;SDS011;4561;47.450;7.516;2022-08-19T08:55:23;19.13;;;17.53;;
9052;SDS011;4561;47.450;7.516;2022-08-19T08:59:06;19.90;;;17.90;;
9052;SDS011;4561;47.450;7.516;2022-08-19T09:02:29;19.10;;;17.40;;
9052;SDS011;4561;47.450;7.516;2022-08-19T09:05:59;17.50;;;16.00;;
9052;SDS011;4561;47.450;7.516;2022-08-19T09:09:30;16.37;;;15.00;;
9052;SDS011;4561;47.450;7.516;2022-08-19T09:16:32;17.00;;;15.50;;
9052;SDS011;4561;47.450;7.516;2022-08-19T09:19:56;15.53;;;14.20;;
9052;SDS011;4561;47.450;7.516;2022-08-19T09:23:28;15.90;;;14.30;;
9052;SDS011;4561;47.450;7.516;2022-08-19T09:26:48;15.87;;;14.37;;
9052;SDS011;4561;47.450;7.516;2022-08-19T09:30:19;16.23;;;14.93;;
9052;SDS011;4561;47.450;7.516;2022-08-19T09:33:43;16.03;;;14.63;;
9052;SDS011;4561;47.450;7.516;2022-08-19T09:37:04;17.77;;;16.33;;
9052;SDS011;4561;47.450;7.516;2022-08-19T09:40:26;15.17;;;13.87;;
9052;SDS011;4561;47.450;7.516;2022-08-19T09:43:50;17.83;;;16.33;;
9052;SDS011;4561;47.450;7.516;2022-08-19T09:47:13;16.67;;;15.20;;
9052;SDS011;4561;47.450;7.516;2022-08-19T09:50:34;17.93;;;16.50;;
9052;SDS011;4561;47.450;7.516;2022-08-19T09:53:59;18.43;;;16.63;;
9052;SDS011;4561;47.450;7.516;2022-08-19T09:57:21;18.40;;;16.50;;
9052;SDS011;4561;47.450;7.516;2022-08-19T10:00:41;18.57;;;16.93;;
9052;SDS011;4561;47.450;7.516;2022-08-19T10:04:01;19.33;;;17.63;;
9052;SDS011;4561;47.450;7.516;2022-08-19T10:07:24;17.37;;;15.97;;
9052;SDS011;4561;47.450;7.516;2022-08-19T10:10:47;18.60;;;16.90;;
9052;SDS011;4561;47.450;7.516;2022-08-19T10:14:09;17.03;;;15.57;;
9052;SDS011;4561;47.450;7.516;2022-08-19T10:17:29;18.30;;;16.70;;
9052;SDS011;4561;47.450;7.516;2022-08-19T10:20:50;18.77;;;16.97;;
9052;SDS011;4561;47.450;7.516;2022-08-19T10:24:12;17.90;;;16.10;;
9052;SDS011;4561;47.450;7.516;2022-08-19T10:27:32;19.43;;;17.47;;
9052;SDS011;4561;47.450;7.516;2022-08-19T10:30:52;19.13;;;17.33;;
9052;SDS011;4561;47.450;7.516;2022-08-19T10:34:13;19.67;;;17.90;;
9052;SDS011;4561;47.450;7.516;2022-08-19T10:37:34;18.93;;;17.30;;
9052;SDS011;4561;47.450;7.516;2022-08-19T10:40:57;17.63;;;15.83;;
9052;SDS011;4561;47.450;7.516;2022-08-19T10:44:19;18.17;;;16.47;;
9052;SDS011;4561;47.450;7.516;2022-08-19T10:47:41;18.60;;;17.00;;
9052;SDS011;4561;47.450;7.516;2022-08-19T10:51:04;18.97;;;16.93;;
9052;SDS011;4561;47.450;7.516;2022-08-19T10:54:43;18.73;;;16.93;;
9052;SDS011;4561;47.450;7.516;2022-08-19T10:58:22;18.37;;;16.77;;
9052;SDS011;4561;47.450;7.516;2022-08-19T11:01:46;20.43;;;18.57;;
9052;SDS011;4561;47.450;7.516;2022-08-19T11:05:07;20.60;;;18.60;;
9052;SDS011;4561;47.450;7.516;2022-08-19T11:08:29;19.63;;;18.03;;
9052;SDS011;4561;47.450;7.516;2022-08-19T11:11:54;20.80;;;18.90;;
9052;SDS011;4561;47.450;7.516;2022-08-19T11:15:19;18.93;;;17.30;;
9052;SDS011;4561;47.450;7.516;2022-08-19T11:18:41;19.70;;;17.90;;
9052;SDS011;4561;47.450;7.516;2022-08-19T11:22:07;20.63;;;18.63;;
9052;SDS011;4561;47.450;7.516;2022-08-19T11:25:33;19.53;;;17.83;;
9052;SDS011;4561;47.450;7.516;2022-08-19T11:28:57;19.93;;;18.23;;
9052;SDS011;4561;47.450;7.516;2022-08-19T11:32:20;20.10;;;18.00;;
9052;SDS011;4561;47.450;7.516;2022-08-19T11:35:41;18.93;;;17.40;;
9052;SDS011;4561;47.450;7.516;2022-08-19T11:39:03;20.13;;;18.33;;
9052;SDS011;4561;47.450;7.516;2022-08-19T11:42:27;18.10;;;16.43;;
9052;SDS011;4561;47.450;7.516;2022-08-19T11:46:07;20.37;;;18.63;;
9052;SDS011;4561;47.450;7.516;2022-08-19T11:49:32;19.70;;;17.97;;
9052;SDS011;4561;47.450;7.516;2022-08-19T11:52:56;19.40;;;17.80;;
9052;SDS011;4561;47.450;7.516;2022-08-19T11:56:17;20.57;;;18.20;;
9052;SDS011;4561;47.450;7.516;2022-08-19T11:59:38;19.00;;;17.23;;
9052;SDS011;4561;47.450;7.516;2022-08-19T12:02:58;18.80;;;17.10;;
9052;SDS011;4561;47.450;7.516;2022-08-19T12:06:29;20.77;;;18.97;;
9052;SDS011;4561;47.450;7.516;2022-08-19T12:09:51;18.60;;;16.90;;
9052;SDS011;4561;47.450;7.516;2022-08-19T12:13:12;22.30;;;20.37;;
9052;SDS011;4561;47.450;7.516;2022-08-19T12:16:38;22.60;;;20.47;;
9052;SDS011;4561;47.450;7.516;2022-08-19T12:19:59;22.37;;;20.47;;
9052;SDS011;4561;47.450;7.516;2022-08-19T12:23:20;21.70;;;19.60;;
9052;SDS011;4561;47.450;7.516;2022-08-19T12:26:43;21.43;;;19.43;;
9052;SDS011;4561;47.450;7.516;2022-08-19T12:30:03;21.63;;;19.60;;
9052;SDS011;4561;47.450;7.516;2022-08-19T12:33:24;22.27;;;20.30;;
9052;SDS011;4561;47.450;7.516;2022-08-19T12:36:47;21.63;;;19.73;;
9052;SDS011;4561;47.450;7.516;2022-08-19T12:40:10;21.33;;;18.90;;
9052;SDS011;4561;47.450;7.516;2022-08-19T12:43:34;21.33;;;19.23;;
9052;SDS011;4561;47.450;7.516;2022-08-19T12:46:55;18.73;;;17.13;;
9052;SDS011;4561;47.450;7.516;2022-08-19T12:50:18;20.27;;;18.50;;
9052;SDS011;4561;47.450;7.516;2022-08-19T12:53:39;21.03;;;19.33;;
9052;SDS011;4561;47.450;7.516;2022-08-19T12:57:06;20.30;;;18.50;;
9052;SDS011;4561;47.450;7.516;2022-08-19T13:00:28;19.93;;;18.17;;
9052;SDS011;4561;47.450;7.516;2022-08-19T13:03:48;19.73;;;18.13;;
9052;SDS011;4561;47.450;7.516;2022-08-19T13:07:09;16.60;;;15.20;;
9052;SDS011;4561;47.450;7.516;2022-08-19T13:10:31;17.17;;;15.87;;
9052;SDS011;4561;47.450;7.516;2022-08-19T13:13:57;16.63;;;15.33;;
9052;SDS011;4561;47.450;7.516;2022-08-19T13:17:19;17.20;;;15.87;;
9052;SDS011;4561;47.450;7.516;2022-08-19T13:20:40;16.00;;;14.70;;
9052;SDS011;4561;47.450;7.516;2022-08-19T13:24:03;16.60;;;15.10;;
9052;SDS011;4561;47.450;7.516;2022-08-19T13:27:23;15.70;;;14.50;;
9052;SDS011;4561;47.450;7.516;2022-08-19T13:30:46;16.33;;;14.80;;
9052;SDS011;4561;47.450;7.516;2022-08-19T13:34:27;15.37;;;13.97;;
9052;SDS011;4561;47.450;7.516;2022-08-19T13:37:55;16.53;;;15.23;;
9052;SDS011;4561;47.450;7.516;2022-08-19T13:41:15;17.87;;;16.47;;
9052;SDS011;4561;47.450;7.516;2022-08-19T13:44:39;18.83;;;17.23;;
9052;SDS011;4561;47.450;7.516;2022-08-19T13:48:03;19.60;;;18.10;;
9052;SDS011;4561;47.450;7.516;2022-08-19T13:51:28;20.20;;;18.60;;
9052;SDS011;4561;47.450;7.516;2022-08-19T13:54:54;20.63;;;18.87;;
9052;SDS011;4561;47.450;7.516;2022-08-19T13:58:17;20.60;;;18.90;;
9052;SDS011;4561;47.450;7.516;2022-08-19T14:01:38;20.50;;;18.80;;
9052;SDS011;4561;47.450;7.516;2022-08-19T14:05:01;20.03;;;18.43;;
9052;SDS011;4561;47.450;7.516;2022-08-19T14:08:21;20.60;;;18.73;;
9052;SDS011;4561;47.450;7.516;2022-08-19T14:11:42;19.90;;;18.17;;
9052;SDS011;4561;47.450;7.516;2022-08-19T14:15:03;21.43;;;19.63;;
9052;SDS011;4561;47.450;7.516;2022-08-19T14:18:24;21.07;;;19.47;;
9052;SDS011;4561;47.450;7.516;2022-08-19T14:21:45;25.63;;;23.57;;
9052;SDS011;4561;47.450;7.516;2022-08-19T14:25:09;25.17;;;23.07;;
9052;SDS011;4561;47.450;7.516;2022-08-19T14:28:31;25.73;;;23.63;;
9052;SDS011;4561;47.450;7.516;2022-08-19T14:31:51;31.40;;;28.40;;
9052;SDS011;4561;47.450;7.516;2022-08-19T14:35:13;32.23;;;29.30;;
9052;SDS011;4561;47.450;7.516;2022-08-19T14:38:39;26.37;;;23.87;;
9052;SDS011;4561;47.450;7.516;2022-08-19T14:42:00;24.97;;;22.77;;
9052;SDS011;4561;47.450;7.516;2022-08-19T14:45:21;26.73;;;24.27;;
9052;SDS011;4561;47.450;7.516;2022-08-19T14:48:42;27.20;;;24.70;;
9052;SDS011;4561;47.450;7.516;2022-08-19T14:52:03;27.47;;;25.07;;
9052;SDS011;4561;47.450;7.516;2022-08-19T14:55:23;28.60;;;26.20;;
9052;SDS011;4561;47.450;7.516;2022-08-19T14:58:44;35.03;;;32.03;;
9052;SDS011;4561;47.450;7.516;2022-08-19T15:02:04;31.13;;;28.40;;
9052;SDS011;4561;47.450;7.516;2022-08-19T15:05:27;32.33;;;29.53;;
9052;SDS011;4561;47.450;7.516;2022-08-19T15:08:48;24.33;;;22.23;;
9052;SDS011;4561;47.450;7.516;2022-08-19T15:12:09;26.03;;;23.80;;
9052;SDS011;4561;47.450;7.516;2022-08-19T15:15:30;24.87;;;22.63;;
9052;SDS011;4561;47.450;7.516;2022-08-19T15:18:51;29.00;;;26.50;;
9052;SDS011;4561;47.450;7.516;2022-08-19T15:22:13;29.97;;;27.27;;
9052;SDS011;4561;47.450;7.516;2022-08-19T15:25:33;33.40;;;30.50;;
9052;SDS011;4561;47.450;7.516;2022-08-19T15:28:54;27.80;;;25.40;;
9052;SDS011;4561;47.450;7.516;2022-08-19T15:32:14;32.73;;;29.90;;
9052;SDS011;4561;47.450;7.516;2022-08-19T15:35:37;32.50;;;29.60;;
9052;SDS011;4561;47.450;7.516;2022-08-19T15:38:59;34.00;;;30.90;;
9052;SDS011;4561;47.450;7.516;2022-08-19T15:42:20;32.93;;;30.00;;
9052;SDS011;4561;47.450;7.516;2022-08-19T15:45:41;33.93;;;30.93;;
9052;SDS011;4561;47.450;7.516;2022-08-19T15:49:04;32.13;;;29.23;;
9052;SDS011;4561;47.450;7.516;2022-08-19T15:52:25;32.00;;;29.27;;
9052;SDS011;4561;47.450;7.516;2022-08-19T15:55:46;33.43;;;30.53;;
9052;SDS011;4561;47.450;7.516;2022-08-19T15:59:07;34.67;;;31.57;;
9052;SDS011;4561;47.450;7.516;2022-08-19T16:02:48;31.63;;;29.03;;
9052;SDS011;4561;47.450;7.516;2022-08-19T16:06:27;36.37;;;33.07;;
9052;SDS011;4561;47.450;7.516;2022-08-19T16:09:51;34.37;;;31.33;;
9052;SDS011;4561;47.450;7.516;2022-08-19T16:13:14;29.90;;;27.20;;
9052;SDS011;4561;47.450;7.516;2022-08-19T16:16:35;31.43;;;28.73;;
9052;SDS011;4561;47.450;7.516;2022-08-19T16:19:56;34.47;;;31.30;;
9052;SDS011;4561;47.450;7.516;2022-08-19T16:23:16;33.93;;;30.93;;
9052;SDS011;4561;47.450;7.516;2022-08-19T16:26:37;33.97;;;30.70;;
9052;SDS011;4561;47.450;7.516;2022-08-19T16:29:59;31.20;;;28.40;;
9052;SDS011;4561;47.450;7.516;2022-08-19T16:33:19;31.33;;;28.50;;
9052;SDS011;4561;47.450;7.516;2022-08-19T16:36:39;32.00;;;29.30;;
9052;SDS011;4561;47.450;7.516;2022-08-19T16:40:03;28.77;;;26.37;;
9052;SDS011;4561;47.450;7.516;2022-08-19T16:43:26;28.07;;;25.70;;
9052;SDS011;4561;47.450;7.516;2022-08-19T16:46:52;29.30;;;26.63;;
9052;SDS011;4561;47.450;7.516;2022-08-19T16:50:13;26.30;;;23.93;;
9052;SDS011;4561;47.450;7.516;2022-08-19T16:53:36;27.90;;;25.23;;
9052;SDS011;4561;47.450;7.516;2022-08-19T16:57:00;29.10;;;26.33;;
9052;SDS011;4561;47.450;7.516;2022-08-19T17:00:20;25.37;;;23.07;;
9052;SDS011;4561;47.450;7.516;2022-08-19T17:03:43;27.47;;;25.17;;
9052;SDS011;4561;47.450;7.516;2022-08-19T17:07:03;23.00;;;21.00;;
9052;SDS011;4561;47.450;7.516;2022-08-19T17:10:24;23.20;;;20.97;;
9052;SDS011;4561;47.450;7.516;2022-08-19T17:13:45;24.87;;;22.43;;
9052;SDS011;4561;47.450;7.516;2022-08-19T17:17:06;22.73;;;20.77;;
9052;SDS011;4561;47.450;7.516;2022-08-19T17:20:31;20.73;;;18.93;;
9052;SDS011;4561;47.450;7.516;2022-08-19T17:23:55;22.50;;;20.37;;
9052;SDS011;4561;47.450;7.516;2022-08-19T17:27:15;23.53;;;21.43;;
9052;SDS011;4561;47.450;7.516;2022-08-19T17:30:36;21.63;;;19.63;;
9052;SDS011;4561;47.450;7.516;2022-08-19T17:33:56;19.67;;;17.97;;
9052;SDS011;4561;47.450;7.516;2022-08-19T17:37:19;23.37;;;21.30;;
9052;SDS011;4561;47.450;7.516;2022-08-19T17:40:40;21.67;;;19.77;;
9052;SDS011;4561;47.450;7.516;2022-08-19T17:44:01;21.40;;;19.60;;
9052;SDS011;4561;47.450;7.516;2022-08-19T17:47:22;21.13;;;19.27;;
9052;SDS011;4561;47.450;7.516;2022-08-19T17:50:43;23.00;;;20.93;;
9052;SDS011;4561;47.450;7.516;2022-08-19T17:54:06;21.30;;;19.50;;
9052;SDS011;4561;47.450;7.516;2022-08-19T17:57:28;21.80;;;20.10;;
9052;SDS011;4561;47.450;7.516;2022-08-19T18:00:48;21.10;;;19.20;;
9052;SDS011;4561;47.450;7.516;2022-08-19T18:04:08;21.90;;;19.60;;
9052;SDS011;4561;47.450;7.516;2022-08-19T18:07:29;20.00;;;18.17;;
9052;SDS011;4561;47.450;7.516;2022-08-19T18:10:53;21.30;;;19.60;;
9052;SDS011;4561;47.450;7.516;2022-08-19T18:14:13;20.77;;;19.07;;
9052;SDS011;4561;47.450;7.516;2022-08-19T18:17:34;19.57;;;17.77;;
9052;SDS011;4561;47.450;7.516;2022-08-19T18:20:56;20.30;;;18.40;;
9052;SDS011;4561;47.450;7.516;2022-08-19T18:24:16;19.70;;;17.90;;
9052;SDS011;4561;47.450;7.516;2022-08-19T18:27:37;20.87;;;18.97;;
9052;SDS011;4561;47.450;7.516;2022-08-19T18:30:57;20.37;;;18.57;;
9052;SDS011;4561;47.450;7.516;2022-08-19T18:34:21;19.83;;;18.13;;
9052;SDS011;4561;47.450;7.516;2022-08-19T18:37:43;20.97;;;19.07;;
9052;SDS011;4561;47.450;7.516;2022-08-19T18:41:06;19.27;;;17.60;;
9052;SDS011;4561;47.450;7.516;2022-08-19T18:44:46;19.13;;;17.27;;
9052;SDS011;4561;47.450;7.516;2022-08-19T18:48:25;19.30;;;17.57;;
9052;SDS011;4561;47.450;7.516;2022-08-19T18:52:04;18.63;;;17.10;;
9052;SDS011;4561;47.450;7.516;2022-08-19T18:55:24;19.03;;;17.13;;
9052;SDS011;4561;47.450;7.516;2022-08-19T18:58:47;18.40;;;16.57;;
9052;SDS011;4561;47.450;7.516;2022-08-19T19:02:10;16.83;;;15.43;;
9052;SDS011;4561;47.450;7.516;2022-08-19T19:05:33;16.00;;;14.47;;
9052;SDS011;4561;47.450;7.516;2022-08-19T19:08:56;14.43;;;13.23;;
9052;SDS011;4561;47.450;7.516;2022-08-19T19:12:17;15.17;;;13.87;;
9052;SDS011;4561;47.450;7.516;2022-08-19T19:15:41;15.50;;;14.00;;
9052;SDS011;4561;47.450;7.516;2022-08-19T19:19:04;13.57;;;12.27;;
9052;SDS011;4561;47.450;7.516;2022-08-19T19:22:32;12.77;;;11.73;;
9052;SDS011;4561;47.450;7.516;2022-08-19T19:25:52;13.20;;;12.10;;
9052;SDS011;4561;47.450;7.516;2022-08-19T19:29:13;12.93;;;11.40;;
9052;SDS011;4561;47.450;7.516;2022-08-19T19:32:33;8.27;;;7.57;;
9052;SDS011;4561;47.450;7.516;2022-08-19T19:35:57;8.17;;;7.37;;
9052;SDS011;4561;47.450;7.516;2022-08-19T19:39:17;7.93;;;7.23;;
9052;SDS011;4561;47.450;7.516;2022-08-19T19:42:43;7.87;;;7.27;;
9052;SDS011;4561;47.450;7.516;2022-08-19T19:46:04;8.30;;;7.47;;
9052;SDS011;4561;47.450;7.516;2022-08-19T19:49:25;7.50;;;6.90;;
9052;SDS011;4561;47.450;7.516;2022-08-19T19:52:45;7.50;;;6.90;;
9052;SDS011;4561;47.450;7.516;2022-08-19T19:56:08;8.20;;;7.23;;
9052;SDS011;4561;47.450;7.516;2022-08-19T19:59:29;7.50;;;6.87;;
9052;SDS011;4561;47.450;7.516;2022-08-19T20:02:49;7.80;;;7.07;;
9052;SDS011;4561;47.450;7.516;2022-08-19T20:06:11;6.97;;;6.30;;
9052;SDS011;4561;47.450;7.516;2022-08-19T20:09:35;6.93;;;6.33;;
9052;SDS011;4561;47.450;7.516;2022-08-19T20:12:55;7.20;;;6.60;;
9052;SDS011;4561;47.450;7.516;2022-08-19T20:16:15;6.57;;;5.97;;
9052;SDS011;4561;47.450;7.516;2022-08-19T20:19:36;6.70;;;6.10;;
9052;SDS011;4561;47.450;7.516;2022-08-19T20:22:57;7.10;;;6.50;;
9052;SDS011;4561;47.450;7.516;2022-08-19T20:26:17;6.97;;;6.37;;
9052;SDS011;4561;47.450;7.516;2022-08-19T20:29:40;7.90;;;7.20;;
9052;SDS011;4561;47.450;7.516;2022-08-19T20:33:00;7.67;;;6.97;;
9052;SDS011;4561;47.450;7.516;2022-08-19T20:36:25;7.43;;;6.73;;
9052;SDS011;4561;47.450;7.516;2022-08-19T20:39:46;6.10;;;5.60;;
9052;SDS011;4561;47.450;7.516;2022-08-19T20:43:07;6.00;;;5.50;;
9052;SDS011;4561;47.450;7.516;2022-08-19T20:46:29;9.40;;;6.90;;
9052;SDS011;4561;47.450;7.516;2022-08-19T20:49:50;5.47;;;4.97;;